createdAt,value
2022-08-19T00:01:40.473Z,7.85
2022-08-19T00:04:11.399Z,7.80
2022-08-19T00:06:40.579Z,7.95
2022-08-19T00:09:10.621Z,7.65
2022-08-19T00:11:38.789Z,8.10
2022-08-19T00:14:08.397Z,8.13
2022-08-19T00:16:36.749Z,8.10
2022-08-19T00:19:04.672Z,7.60
2022-08-19T00:21:32.383Z,8.25
2022-08-19T00:24:00.642Z,8.00
2022-08-19T00:26:29.491Z,8.20
2022-08-19T00:28:57.369Z,8.52
2022-08-19T00:31:26.164Z,8.35
2022-08-19T00:33:53.595Z,8.10
2022-08-19T00:36:21.695Z,8.23
2022-08-19T00:38:52.656Z,8.57
2022-08-19T00:41:22.258Z,8.33
2022-08-19T00:44:07.220Z,8.60
2022-08-19T00:46:37.654Z,8.30
2022-08-19T00:49:22.388Z,8.13
2022-08-19T00:51:58.365Z,8.43
2022-08-19T00:54:31.236Z,8.57
2022-08-19T00:57:00.459Z,7.75
2022-08-19T01:00:00.476Z,8.57
2022-08-19T01:02:17.811Z,8.02
2022-08-19T01:04:45.544Z,8.02
2022-08-19T01:07:15.173Z,8.45
2022-08-19T01:09:45.290Z,8.70
2022-08-19T01:12:12.833Z,8.00
2022-08-19T01:14:41.362Z,8.18
2022-08-19T01:17:10.580Z,8.13
2022-08-19T01:19:43.759Z,8.10
2022-08-19T01:22:21.612Z,8.18
2022-08-19T01:24:54.000Z,8.43
2022-08-19T01:27:23.033Z,8.15
2022-08-19T01:29:52.126Z,7.93
2022-08-19T01:32:33.178Z,8.07
2022-08-19T01:35:03.733Z,8.13
2022-08-19T01:37:32.375Z,8.37
2022-08-19T01:39:59.850Z,8.13
2022-08-19T01:42:30.575Z,8.40
2022-08-19T01:44:58.430Z,8.15
2022-08-19T01:47:25.870Z,8.18
2022-08-19T01:49:53.578Z,8.15
2022-08-19T01:52:21.060Z,8.05
2022-08-19T01:54:48.479Z,7.97
2022-08-19T01:57:16.750Z,8.18
2022-08-19T01:59:45.120Z,8.10
2022-08-19T02:02:12.866Z,8.20
2022-08-19T02:04:40.959Z,8.30
2022-08-19T02:07:09.153Z,8.33
2022-08-19T02:09:37.093Z,8.10
2022-08-19T02:12:05.853Z,8.02
2022-08-19T02:14:35.265Z,8.07
2022-08-19T02:17:03.527Z,7.90
2022-08-19T02:19:33.529Z,8.23
2022-08-19T02:22:01.374Z,8.23
2022-08-19T02:24:28.848Z,7.82
2022-08-19T02:26:56.767Z,8.07
2022-08-19T02:29:24.187Z,8.23
2022-08-19T02:31:52.684Z,8.68
2022-08-19T02:34:20.467Z,8.32
2022-08-19T02:36:51.958Z,8.00
2022-08-19T02:39:20.385Z,8.53
2022-08-19T02:41:47.814Z,8.70
2022-08-19T02:44:29.969Z,8.00
2022-08-19T02:46:59.129Z,8.02
2022-08-19T02:49:26.567Z,8.07
2022-08-19T02:51:54.015Z,8.77
2022-08-19T02:54:21.730Z,7.83
2022-08-19T02:56:50.101Z,8.18
2022-08-19T02:59:17.559Z,8.60
2022-08-19T03:01:48.070Z,7.93
2022-08-19T03:04:16.645Z,8.20
2022-08-19T03:06:46.115Z,8.32
2022-08-19T03:09:14.969Z,8.48
2022-08-19T03:11:42.388Z,9.00
2022-08-19T03:14:10.941Z,8.00
2022-08-19T03:16:50.736Z,7.90
2022-08-19T03:19:19.542Z,8.00
2022-08-19T03:21:47.321Z,8.93
2022-08-19T03:24:16.415Z,8.50
2022-08-19T03:26:47.061Z,8.25
2022-08-19T03:29:15.988Z,8.40
2022-08-19T03:31:57.612Z,8.23
2022-08-19T03:34:29.415Z,8.02
2022-08-19T03:36:59.986Z,8.80
2022-08-19T03:39:28.293Z,7.93
2022-08-19T03:42:29.273Z,8.25
2022-08-19T03:44:51.054Z,8.60
2022-08-19T03:47:19.494Z,8.32
2022-08-19T03:49:47.347Z,8.68
2022-08-19T03:52:15.257Z,8.60
2022-08-19T03:54:43.047Z,8.57
2022-08-19T03:57:10.556Z,8.90
2022-08-19T03:59:38.853Z,8.55
2022-08-19T04:02:11.921Z,9.13
2022-08-19T04:04:41.251Z,8.55
2022-08-19T04:07:10.464Z,8.45
2022-08-19T04:09:38.118Z,8.87
2022-08-19T04:12:06.604Z,8.70
2022-08-19T04:14:34.724Z,8.50
2022-08-19T04:17:05.635Z,8.60
2022-08-19T04:19:35.463Z,8.90
2022-08-19T04:22:03.612Z,8.65
2022-08-19T04:24:31.355Z,8.88
2022-08-19T04:27:01.201Z,8.50
2022-08-19T04:29:28.881Z,9.13
2022-08-19T04:31:57.324Z,8.43
2022-08-19T04:34:27.218Z,8.65
2022-08-19T04:36:56.021Z,9.00
2022-08-19T04:39:48.057Z,8.65
2022-08-19T04:42:36.616Z,8.82
2022-08-19T04:45:12.518Z,8.60
2022-08-19T04:47:47.444Z,8.55
2022-08-19T04:50:19.814Z,8.32
2022-08-19T04:52:47.628Z,8.83
2022-08-19T04:55:15.505Z,8.88
2022-08-19T04:57:43.039Z,8.68
2022-08-19T05:00:11.632Z,9.10
2022-08-19T05:02:39.799Z,8.50
2022-08-19T05:05:07.775Z,8.73
2022-08-19T05:07:35.807Z,8.48
2022-08-19T05:10:05.859Z,9.10
2022-08-19T05:12:33.350Z,8.48
2022-08-19T05:15:01.786Z,8.52
2022-08-19T05:17:33.299Z,8.70
2022-08-19T05:20:25.071Z,8.65
2022-08-19T05:22:53.402Z,8.60
2022-08-19T05:25:22.662Z,8.77
2022-08-19T05:27:50.543Z,8.68
2022-08-19T05:30:18.628Z,8.80
2022-08-19T05:32:54.038Z,9.00
2022-08-19T05:35:25.156Z,8.77
2022-08-19T05:37:55.215Z,8.30
2022-08-19T05:40:26.819Z,8.40
2022-08-19T05:42:55.470Z,8.30
2022-08-19T05:45:23.040Z,8.60
2022-08-19T05:47:50.413Z,8.63
2022-08-19T05:50:18.653Z,8.05
2022-08-19T05:52:54.365Z,8.40
2022-08-19T05:55:23.408Z,8.13
2022-08-19T05:57:50.825Z,8.15
2022-08-19T06:00:22.655Z,8.30
2022-08-19T06:02:52.598Z,7.90
2022-08-19T06:05:21.127Z,8.20
2022-08-19T06:07:48.665Z,8.55
2022-08-19T06:10:16.535Z,7.87
2022-08-19T06:12:43.942Z,8.50
2022-08-19T06:15:13.655Z,7.40
2022-08-19T06:17:42.759Z,8.23
2022-08-19T06:20:14.535Z,8.00
2022-08-19T06:22:44.235Z,8.00
2022-08-19T06:25:12.921Z,8.10
2022-08-19T06:27:53.366Z,7.80
2022-08-19T06:30:29.083Z,7.75
2022-08-19T06:32:56.904Z,7.80
2022-08-19T06:35:24.378Z,7.72
2022-08-19T06:37:53.615Z,7.53
2022-08-19T06:40:21.258Z,7.90
2022-08-19T06:42:54.292Z,7.30
2022-08-19T06:45:34.498Z,7.82
2022-08-19T06:48:03.800Z,7.65
2022-08-19T06:50:31.689Z,7.62
2022-08-19T06:53:03.572Z,7.37
2022-08-19T06:55:33.315Z,7.53
2022-08-19T06:58:05.519Z,7.30
2022-08-19T07:00:34.041Z,7.97
2022-08-19T07:03:06.021Z,7.47
2022-08-19T07:05:41.273Z,7.70
2022-08-19T07:08:14.185Z,7.57
2022-08-19T07:10:46.070Z,7.40
2022-08-19T07:13:13.716Z,7.73
2022-08-19T07:15:41.416Z,7.85
2022-08-19T07:18:11.921Z,8.10
2022-08-19T07:20:41.831Z,7.72
2022-08-19T07:23:16.084Z,7.53
2022-08-19T07:25:45.006Z,7.22
2022-08-19T07:28:24.252Z,7.82
2022-08-19T07:30:53.288Z,7.85
2022-08-19T07:33:21.299Z,7.55
2022-08-19T07:35:48.780Z,7.37
2022-08-19T07:38:16.703Z,7.62
2022-08-19T07:40:47.247Z,7.78
2022-08-19T07:43:17.744Z,7.43
2022-08-19T07:45:51.387Z,7.43
2022-08-19T07:48:19.080Z,7.00
2022-08-19T07:50:46.519Z,7.62
2022-08-19T07:53:14.241Z,7.10
2022-08-19T07:55:43.875Z,7.80
2022-08-19T07:58:18.587Z,6.90
2022-08-19T08:00:48.800Z,7.23
2022-08-19T08:03:19.432Z,6.62
2022-08-19T08:06:06.203Z,6.78
2022-08-19T08:08:52.826Z,6.80
2022-08-19T08:11:21.122Z,6.60
2022-08-19T08:14:00.811Z,7.20
2022-08-19T08:16:32.242Z,6.95
2022-08-19T08:19:00.403Z,6.47
2022-08-19T08:21:28.880Z,6.22
2022-08-19T08:23:56.750Z,6.77
2022-08-19T08:26:26.054Z,6.35
2022-08-19T08:28:54.078Z,6.13
2022-08-19T08:31:21.569Z,6.18
2022-08-19T08:33:49.442Z,6.40
2022-08-19T08:36:17.698Z,6.07
2022-08-19T08:38:49.091Z,6.43
2022-08-19T08:41:27.094Z,6.30
2022-08-19T08:43:58.465Z,6.37
2022-08-19T08:46:49.631Z,6.33
2022-08-19T08:49:29.254Z,6.13
2022-08-19T08:52:10.937Z,6.25
2022-08-19T08:54:48.934Z,6.60
2022-08-19T08:57:37.045Z,6.25
2022-08-19T09:00:15.622Z,5.90
2022-08-19T09:02:44.671Z,6.10
2022-08-19T09:05:22.250Z,6.20
2022-08-19T09:08:06.897Z,5.80
2022-08-19T09:10:49.831Z,6.33
2022-08-19T09:13:37.939Z,6.28
2022-08-19T09:16:17.542Z,6.20
2022-08-19T09:18:54.924Z,5.80
2022-08-19T09:21:26.037Z,5.80
2022-08-19T09:23:59.586Z,5.75
2022-08-19T09:26:47.421Z,5.78
2022-08-19T09:29:16.027Z,6.23
2022-08-19T09:31:45.209Z,6.10
2022-08-19T09:34:21.397Z,5.75
2022-08-19T09:36:54.576Z,6.03
2022-08-19T09:39:23.016Z,6.12
2022-08-19T09:41:51.280Z,5.83
2022-08-19T09:44:19.258Z,6.10
2022-08-19T09:46:48.399Z,6.22
2022-08-19T09:49:22.772Z,6.22
2022-08-19T09:51:52.632Z,5.85
2022-08-19T09:54:23.539Z,6.43
2022-08-19T09:56:53.905Z,6.10
2022-08-19T09:59:22.005Z,6.35
2022-08-19T10:01:49.617Z,6.62
2022-08-19T10:04:20.376Z,6.12
2022-08-19T10:06:53.457Z,6.70
2022-08-19T10:09:33.508Z,6.60
2022-08-19T10:12:03.321Z,6.30
2022-08-19T10:14:31.835Z,6.68
2022-08-19T10:17:01.302Z,6.00
2022-08-19T10:19:41.100Z,6.00
2022-08-19T10:22:23.962Z,6.03
2022-08-19T10:24:54.101Z,6.15
2022-08-19T10:27:22.232Z,6.10
2022-08-19T10:29:50.028Z,6.03
2022-08-19T10:32:17.824Z,6.37
2022-08-19T10:34:48.672Z,6.20
2022-08-19T10:37:28.796Z,6.10
2022-08-19T10:39:59.011Z,6.50
2022-08-19T10:42:26.529Z,6.12
2022-08-19T10:44:54.106Z,5.75
2022-08-19T10:47:24.961Z,6.15
2022-08-19T10:50:13.612Z,6.10
2022-08-19T10:52:49.874Z,6.15
2022-08-19T10:55:43.253Z,6.97
2022-08-19T10:58:16.435Z,6.83
2022-08-19T11:00:44.955Z,6.30
2022-08-19T11:03:12.952Z,6.68
2022-08-19T11:05:40.996Z,6.40
2022-08-19T11:08:23.074Z,7.30
2022-08-19T11:11:01.712Z,9.55
2022-08-19T11:13:33.403Z,10.07
2022-08-19T11:16:07.321Z,11.98
2022-08-19T11:18:40.596Z,11.63
2022-08-19T11:21:20.112Z,12.43
2022-08-19T11:23:50.963Z,13.10
2022-08-19T11:26:20.449Z,14.43
2022-08-19T11:28:47.986Z,15.30
2022-08-19T11:31:18.424Z,15.68
2022-08-19T11:33:47.937Z,16.52
2022-08-19T11:36:17.105Z,15.85
2022-08-19T11:38:46.057Z,13.45
2022-08-19T11:41:16.102Z,12.15
2022-08-19T11:43:43.740Z,12.05
2022-08-19T11:46:14.725Z,11.60
2022-08-19T11:48:43.024Z,11.52
2022-08-19T11:51:13.615Z,11.50
2022-08-19T11:53:41.916Z,11.82
2022-08-19T11:56:11.781Z,12.50
2022-08-19T11:58:40.326Z,13.68
2022-08-19T12:01:09.619Z,14.45
2022-08-19T12:03:38.283Z,14.10
2022-08-19T12:06:07.935Z,15.50
2022-08-19T12:08:35.490Z,14.80
2022-08-19T12:11:03.210Z,14.60
2022-08-19T12:13:31.891Z,13.68
2022-08-19T12:16:06.438Z,14.00
2022-08-19T12:18:34.785Z,13.48
2022-08-19T12:21:02.434Z,12.55
2022-08-19T12:23:30.269Z,12.45
2022-08-19T12:25:58.319Z,11.98
2022-08-19T12:28:26.280Z,11.83
2022-08-19T12:30:54.457Z,10.85
2022-08-19T12:33:25.991Z,10.75
2022-08-19T12:35:53.472Z,10.30
2022-08-19T12:38:21.001Z,8.25
2022-08-19T12:40:49.565Z,7.10
2022-08-19T12:43:17.035Z,5.80
2022-08-19T12:45:47.075Z,5.62
2022-08-19T12:48:33.151Z,5.32
2022-08-19T12:51:07.617Z,5.43
2022-08-19T12:53:35.308Z,5.78
2022-08-19T12:56:08.156Z,5.50
2022-08-19T12:58:49.051Z,5.55
2022-08-19T13:01:20.438Z,5.87
2022-08-19T13:03:53.162Z,4.85
2022-08-19T13:06:20.937Z,5.10
2022-08-19T13:08:48.461Z,4.70
2022-08-19T13:11:18.818Z,5.35
2022-08-19T13:13:48.390Z,4.93
2022-08-19T13:16:16.162Z,5.00
2022-08-19T13:18:48.312Z,4.80
2022-08-19T13:21:16.294Z,5.00
2022-08-19T13:23:44.299Z,5.15
2022-08-19T13:26:14.372Z,4.95
2022-08-19T13:29:02.694Z,5.03
2022-08-19T13:31:51.950Z,4.80
2022-08-19T13:34:27.077Z,4.82
2022-08-19T13:36:58.804Z,5.05
2022-08-19T13:39:26.721Z,4.80
2022-08-19T13:41:54.225Z,4.65
2022-08-19T13:44:22.032Z,5.28
2022-08-19T13:46:53.984Z,5.30
2022-08-19T13:49:24.077Z,4.97
2022-08-19T13:51:51.808Z,4.63
2022-08-19T13:54:19.205Z,4.70
2022-08-19T13:56:46.965Z,4.18
2022-08-19T13:59:14.852Z,4.43
2022-08-19T14:01:42.699Z,4.80
2022-08-19T14:04:10.542Z,4.30
2022-08-19T14:06:38.064Z,4.95
2022-08-19T14:09:06.635Z,4.30
2022-08-19T14:11:34.321Z,4.37
2022-08-19T14:14:01.782Z,4.55
2022-08-19T14:16:31.343Z,4.75
2022-08-19T14:18:59.233Z,4.20
2022-08-19T14:21:27.204Z,4.05
2022-08-19T14:23:55.059Z,4.35
2022-08-19T14:26:23.513Z,4.07
2022-08-19T14:28:53.773Z,3.67
2022-08-19T14:31:22.473Z,3.67
2022-08-19T14:33:51.395Z,3.30
2022-08-19T14:36:20.707Z,2.90
2022-08-19T14:38:49.661Z,3.15
2022-08-19T14:41:20.924Z,2.70
2022-08-19T14:43:51.111Z,2.83
2022-08-19T14:46:21.702Z,2.67
2022-08-19T14:48:51.725Z,2.80
2022-08-19T14:51:21.371Z,2.67
2022-08-19T14:53:52.349Z,2.92
2022-08-19T14:56:23.864Z,2.65
2022-08-19T14:58:54.357Z,3.72
2022-08-19T15:01:23.217Z,3.05
2022-08-19T15:03:53.749Z,3.00
2022-08-19T15:06:23.199Z,3.30
2022-08-19T15:08:52.801Z,2.83
2022-08-19T15:11:23.659Z,3.15
2022-08-19T15:13:52.192Z,2.83
2022-08-19T15:16:20.251Z,3.25
2022-08-19T15:18:51.272Z,2.83
2022-08-19T15:21:26.737Z,3.00
2022-08-19T15:23:57.221Z,2.80
2022-08-19T15:26:26.185Z,3.25
2022-08-19T15:28:53.630Z,2.93
2022-08-19T15:31:28.011Z,2.90
2022-08-19T15:33:58.842Z,2.95
2022-08-19T15:36:27.421Z,3.10
2022-08-19T15:38:56.195Z,2.70
2022-08-19T15:41:30.591Z,2.92
2022-08-19T15:44:04.775Z,3.80
2022-08-19T15:46:33.964Z,3.20
2022-08-19T15:49:01.985Z,2.70
2022-08-19T15:51:31.516Z,3.00
2022-08-19T15:54:00.161Z,3.00
2022-08-19T15:56:57.664Z,3.60
2022-08-19T15:59:47.427Z,3.37
2022-08-19T16:02:35.127Z,3.97
2022-08-19T16:05:26.061Z,3.50
2022-08-19T16:07:54.673Z,3.47
2022-08-19T16:10:26.298Z,3.78
2022-08-19T16:12:56.918Z,4.28
2022-08-19T16:15:27.994Z,3.97
2022-08-19T16:17:57.423Z,3.97
2022-08-19T16:20:28.004Z,3.50
2022-08-19T16:22:58.582Z,4.70
2022-08-19T16:25:30.075Z,3.83
2022-08-19T16:28:06.402Z,3.85
2022-08-19T16:30:35.355Z,4.12
2022-08-19T16:33:02.936Z,4.12
2022-08-19T16:35:32.286Z,3.72
2022-08-19T16:38:00.119Z,4.05
2022-08-19T16:40:27.947Z,4.40
2022-08-19T16:42:56.536Z,4.10
2022-08-19T16:45:24.403Z,3.97
2022-08-19T16:47:52.074Z,4.20
2022-08-19T16:50:25.386Z,3.42
2022-08-19T16:53:07.447Z,3.50
2022-08-19T16:55:34.874Z,3.85
2022-08-19T16:58:04.928Z,3.65
2022-08-19T17:00:33.193Z,4.20
2022-08-19T17:03:14.734Z,4.20
2022-08-19T17:05:43.522Z,4.10
2022-08-19T17:08:11.034Z,3.92
2022-08-19T17:10:39.053Z,3.30
2022-08-19T17:13:07.425Z,3.33
2022-08-19T17:15:35.070Z,3.72
2022-08-19T17:18:04.256Z,3.53
2022-08-19T17:20:33.104Z,3.50
2022-08-19T17:23:00.908Z,4.12
2022-08-19T17:25:31.049Z,4.10
2022-08-19T17:28:07.926Z,3.60
2022-08-19T17:30:35.454Z,4.12
2022-08-19T17:33:04.458Z,3.65
2022-08-19T17:35:32.658Z,4.28
2022-08-19T17:38:08.061Z,4.72
2022-08-19T17:40:39.329Z,3.65
2022-08-19T17:43:08.841Z,4.40
2022-08-19T17:45:36.965Z,4.25
2022-08-19T17:48:05.296Z,3.50
2022-08-19T17:50:35.180Z,4.40
2022-08-19T17:53:04.454Z,3.42
2022-08-19T17:55:34.276Z,3.78
2022-08-19T17:58:05.091Z,3.40
2022-08-19T18:00:35.960Z,4.05
2022-08-19T18:03:05.686Z,4.05
2022-08-19T18:05:40.392Z,3.60
2022-08-19T18:08:10.564Z,3.65
2022-08-19T18:10:38.323Z,4.30
2022-08-19T18:13:17.696Z,4.47
2022-08-19T18:15:45.638Z,4.68
2022-08-19T18:18:15.394Z,4.55
2022-08-19T18:20:44.204Z,4.57
2022-08-19T18:23:43.852Z,4.57
2022-08-19T18:26:00.183Z,4.72
2022-08-19T18:28:27.997Z,4.47
2022-08-19T18:30:56.350Z,4.07
2022-08-19T18:33:25.452Z,4.12
2022-08-19T18:35:53.320Z,4.62
2022-08-19T18:38:40.969Z,5.82
2022-08-19T18:41:27.812Z,5.20
2022-08-19T18:44:13.749Z,4.93
2022-08-19T18:47:00.119Z,5.75
2022-08-19T18:49:30.421Z,6.87
2022-08-19T18:51:58.655Z,8.48
2022-08-19T18:54:29.004Z,8.30
2022-08-19T18:56:56.515Z,9.13
2022-08-19T18:59:27.067Z,8.93
2022-08-19T19:01:57.227Z,9.13
2022-08-19T19:04:37.338Z,9.90
2022-08-19T19:07:06.158Z,8.98
2022-08-19T19:09:34.302Z,9.57
2022-08-19T19:12:03.825Z,9.50
2022-08-19T19:14:49.181Z,10.38
2022-08-19T19:17:17.791Z,9.63
2022-08-19T19:19:45.725Z,8.15
2022-08-19T19:22:18.390Z,7.12
2022-08-19T19:24:46.322Z,7.53
2022-08-19T19:27:15.669Z,6.85
2022-08-19T19:29:43.122Z,6.47
2022-08-19T19:32:19.907Z,6.50
2022-08-19T19:34:47.924Z,6.68
2022-08-19T19:37:17.037Z,7.10
2022-08-19T19:39:46.526Z,7.10
2022-08-19T19:42:20.108Z,8.13
2022-08-19T19:44:50.649Z,6.70
2022-08-19T19:47:19.335Z,6.62
2022-08-19T19:50:13.852Z,6.87
2022-08-19T19:52:39.943Z,7.90
2022-08-19T19:55:09.642Z,6.87
2022-08-19T19:57:39.384Z,6.50
2022-08-19T20:00:09.484Z,6.10
2022-08-19T20:02:39.900Z,6.47
2022-08-19T20:05:07.810Z,6.93
2022-08-19T20:07:54.180Z,5.70
2022-08-19T20:10:22.258Z,5.93
2022-08-19T20:12:52.040Z,6.32
2022-08-19T20:15:19.475Z,6.70
2022-08-19T20:17:47.666Z,6.62
2022-08-19T20:20:16.824Z,7.17
2022-08-19T20:22:44.551Z,8.32
2022-08-19T20:25:13.116Z,8.90
2022-08-19T20:27:41.497Z,8.20
2022-08-19T20:30:13.690Z,8.57
2022-08-19T20:32:48.212Z,8.40
2022-08-19T20:35:18.815Z,9.05
2022-08-19T20:37:46.978Z,9.17
2022-08-19T20:40:16.423Z,10.10
2022-08-19T20:42:53.398Z,11.38
2022-08-19T20:45:33.613Z,10.98
2022-08-19T20:48:05.416Z,11.07
2022-08-19T20:50:35.308Z,11.00
2022-08-19T20:53:14.890Z,11.32
2022-08-19T20:55:49.214Z,11.70
2022-08-19T20:58:19.662Z,11.40
2022-08-19T21:00:51.370Z,12.32
2022-08-19T21:03:23.124Z,12.50
2022-08-19T21:05:50.950Z,12.55
2022-08-19T21:08:21.235Z,12.37
2022-08-19T21:10:50.563Z,12.57
2022-08-19T21:13:20.052Z,13.85
2022-08-19T21:15:48.274Z,12.47
2022-08-19T21:18:17.469Z,12.10
2022-08-19T21:20:49.722Z,12.50
2022-08-19T21:23:23.522Z,12.55
2022-08-19T21:25:54.994Z,12.45
2022-08-19T21:28:34.499Z,12.80
2022-08-19T21:31:05.875Z,13.48
2022-08-19T21:33:33.772Z,13.07
2022-08-19T21:36:01.352Z,12.23
2022-08-19T21:38:28.923Z,12.60
2022-08-19T21:40:56.895Z,12.93
2022-08-19T21:43:24.766Z,12.77
2022-08-19T21:45:52.594Z,13.00
2022-08-19T21:48:23.302Z,12.32
2022-08-19T21:50:51.006Z,13.10
2022-08-19T21:53:19.143Z,12.35
2022-08-19T21:55:53.575Z,12.32
2022-08-19T21:58:28.187Z,12.32
2022-08-19T22:01:00.008Z,12.50
2022-08-19T22:03:28.378Z,12.10
2022-08-19T22:05:56.024Z,12.35
2022-08-19T22:08:23.684Z,11.98
2022-08-19T22:10:53.394Z,11.35
2022-08-19T22:13:20.877Z,11.50
2022-08-19T22:15:50.441Z,11.18
2022-08-19T22:18:19.121Z,11.05
2022-08-19T22:20:47.854Z,11.63
2022-08-19T22:23:15.315Z,11.85
2022-08-19T22:25:46.567Z,11.82
2022-08-19T22:28:18.738Z,11.23
2022-08-19T22:30:56.291Z,11.57
2022-08-19T22:33:25.903Z,11.35
2022-08-19T22:35:53.743Z,11.15
2022-08-19T22:38:22.034Z,11.40
2022-08-19T22:40:50.937Z,10.97
2022-08-19T22:43:21.635Z,10.25
2022-08-19T22:45:51.067Z,10.85
2022-08-19T22:48:21.052Z,10.85
2022-08-19T22:51:08.488Z,10.30
2022-08-19T22:53:38.823Z,9.63
2022-08-19T22:56:09.928Z,10.43
2022-08-19T22:58:40.928Z,10.63
2022-08-19T23:01:08.796Z,10.90
2022-08-19T23:03:36.382Z,10.70
2022-08-19T23:06:04.125Z,10.80
2022-08-19T23:08:32.131Z,10.30
2022-08-19T23:11:02.290Z,10.15
2022-08-19T23:13:37.519Z,10.03
2022-08-19T23:16:08.205Z,9.57
2022-08-19T23:18:35.676Z,9.18
2022-08-19T23:21:04.486Z,9.30
2022-08-19T23:23:36.713Z,9.10
2022-08-19T23:26:10.421Z,9.27
2022-08-19T23:28:58.399Z,8.82
2022-08-19T23:31:26.873Z,9.02
2022-08-19T23:33:54.727Z,8.17
2022-08-19T23:36:22.974Z,8.20
2022-08-19T23:38:52.296Z,8.90
2022-08-19T23:41:22.041Z,8.60
2022-08-19T23:43:50.862Z,8.70
2022-08-19T23:46:27.945Z,8.73
2022-08-19T23:48:56.869Z,8.45
2022-08-19T23:51:26.755Z,8.93
2022-08-19T23:53:54.505Z,8.00
2022-08-19T23:56:22.009Z,7.70
2022-08-19T23:58:49.807Z,7.75
